Time;durP1;ratioP1;P1;durP2;ratioP2;P2;SDS_P1;SDS_P2;PMS_P1;PMS_P2;Temp;Humidity;BMP_temperature;BMP_pressure;BME280_temperature;BME280_humidity;BME280_pressure;Samples;Min_cycle;Max_cycle;Signal;HPM_P1;HPM_P2
2021/04/10 00:01:48;;;;;;;9.18;1.95;;;9.80;90.10;;;;;;5054684;28;20025;-85
2021/04/10 00:04:14;;;;;;;5.82;1.75;;;9.80;90.10;;;;;;5054350;28;20029;-86
2021/04/10 00:06:41;;;;;;;5.70;2.13;;;9.80;90.40;;;;;;5053071;28;20389;-86
2021/04/10 00:09:07;;;;;;;4.75;1.70;;;9.80;90.10;;;;;;5052976;28;20021;-85
2021/04/10 00:11:34;;;;;;;6.68;1.90;;;9.80;90.10;;;;;;5054234;28;20497;-85
2021/04/10 00:14:05;;;;;;;4.18;1.77;;;9.90;90.10;;;;;;5053001;28;20425;-84
2021/04/10 00:16:33;;;;;;;10.27;2.03;;;9.90;90.10;;;;;;5052844;28;20028;-84
2021/04/10 00:18:58;;;;;;;11.95;1.90;;;9.90;90.10;;;;;;5053639;28;20029;-86
2021/04/10 00:21:24;;;;;;;8.77;2.10;;;9.90;90.40;;;;;;5052838;28;20047;-86
2021/04/10 00:23:50;;;;;;;6.85;2.08;;;9.90;90.40;;;;;;5054013;28;20059;-86
2021/04/10 00:26:15;;;;;;;11.75;2.00;;;9.90;90.60;;;;;;5053903;28;20456;-86
2021/04/10 00:28:41;;;;;;;6.65;1.70;;;9.90;90.70;;;;;;5052604;28;20029;-85
2021/04/10 00:31:07;;;;;;;8.25;1.70;;;10.00;90.60;;;;;;5052570;28;20017;-84
2021/04/10 00:33:37;;;;;;;9.55;1.67;;;10.20;90.50;;;;;;5053944;28;20021;-86
2021/04/10 00:36:08;;;;;;;3.95;1.77;;;10.10;90.50;;;;;;5052596;28;20033;-85
2021/04/10 00:38:35;;;;;;;7.53;1.60;;;10.10;90.40;;;;;;5034018;28;20493;-86
2021/04/10 00:41:02;;;;;;;7.10;1.75;;;10.00;90.30;;;;;;5016161;28;20029;-85
2021/04/10 00:43:28;;;;;;;3.78;1.90;;;10.00;90.50;;;;;;5016073;28;20032;-86
2021/04/10 00:45:54;;;;;;;6.40;1.73;;;10.10;90.30;;;;;;5033925;28;20059;-86
2021/04/10 00:48:21;;;;;;;5.80;1.80;;;10.00;90.40;;;;;;5016076;28;20030;-85
2021/04/10 00:50:47;;;;;;;6.80;1.75;;;10.00;90.40;;;;;;5016011;28;20053;-86
2021/04/10 00:53:15;;;;;;;5.85;1.90;;;10.00;90.40;;;;;;5033626;28;20032;-85
2021/04/10 00:55:43;;;;;;;8.68;1.75;;;10.00;90.10;;;;;;5033681;28;20021;-86
2021/04/10 00:58:09;;;;;;;4.43;1.45;;;10.10;90.20;;;;;;5015925;28;20064;-84
2021/04/10 01:00:35;;;;;;;7.15;1.70;;;10.20;90.10;;;;;;5033694;28;20163;-86
2021/04/10 01:03:02;;;;;;;9.15;1.48;;;10.20;89.90;;;;;;5016054;28;20068;-87
2021/04/10 01:05:28;;;;;;;4.50;1.50;;;10.30;89.50;;;;;;5015905;28;20072;-86
2021/04/10 01:07:53;;;;;;;5.55;1.83;;;10.30;89.60;;;;;;5033621;28;20388;-83
2021/04/10 01:10:20;;;;;;;9.63;1.60;;;10.40;89.30;;;;;;5015905;28;20067;-86
2021/04/10 01:12:51;;;;;;;7.40;1.85;;;10.30;89.30;;;;;;5015830;28;20553;-87
2021/04/10 01:15:46;;;;;;;5.25;1.30;;;10.40;89.50;;;;;;5033622;28;20083;-83
2021/04/10 01:18:17;;;;;;;6.65;1.70;;;10.50;89.00;;;;;;5015809;28;20362;-85
2021/04/10 01:21:06;;;;;;;3.45;1.33;;;10.40;89.30;;;;;;5015949;28;20025;-85
2021/04/10 01:23:44;;;;;;;5.03;1.50;;;10.50;89.00;;;;;;5033497;28;20366;-85
2021/04/10 01:26:23;;;;;;;3.97;1.35;;;10.50;89.00;;;;;;5015639;28;20029;-85
2021/04/10 01:29:01;;;;;;;2.95;1.77;;;10.50;88.90;;;;;;5015645;28;20112;-85
2021/04/10 01:31:34;;;;;;;3.22;1.13;;;10.50;89.00;;;;;;5015646;28;20025;-86
2021/04/10 01:34:04;;;;;;;7.72;1.60;;;10.50;89.40;;;;;;5015610;28;20060;-84
2021/04/10 01:36:33;;;;;;;5.97;1.30;;;10.40;89.60;;;;;;5033197;28;20061;-86
2021/04/10 01:39:01;;;;;;;5.85;1.30;;;10.50;89.40;;;;;;5015637;28;20033;-86
2021/04/10 01:41:28;;;;;;;3.50;1.45;;;10.50;89.60;;;;;;5015641;28;20064;-86
2021/04/10 01:43:54;;;;;;;5.25;1.77;;;10.40;90.00;;;;;;5035652;28;20034;-84
2021/04/10 01:46:24;;;;;;;5.90;1.60;;;10.30;90.10;;;;;;5019415;28;20061;-86
2021/04/10 01:48:51;;;;;;;4.47;1.67;;;10.40;90.00;;;;;;5019338;28;20032;-86
2021/04/10 01:51:18;;;;;;;4.60;1.38;;;10.30;90.10;;;;;;5019399;28;20547;-85
2021/04/10 01:53:45;;;;;;;6.85;1.48;;;10.40;90.30;;;;;;5019358;28;20469;-87
2021/04/10 01:56:13;;;;;;;3.00;1.33;;;10.40;90.30;;;;;;5019464;28;20469;-86
2021/04/10 01:58:42;;;;;;;3.97;1.40;;;10.30;90.10;;;;;;5019241;28;20025;-87
2021/04/10 02:01:11;;;;;;;6.00;1.50;;;10.30;90.40;;;;;;5019063;28;20029;-87
2021/04/10 02:03:38;;;;;;;5.43;1.50;;;10.20;90.60;;;;;;5019586;28;20080;-86
2021/04/10 02:06:07;;;;;;;7.00;1.48;;;10.20;90.60;;;;;;5018972;28;20079;-86
2021/04/10 02:08:33;;;;;;;6.53;1.50;;;10.30;90.50;;;;;;5018917;28;20025;-86
2021/04/10 02:11:00;;;;;;;4.40;1.40;;;10.30;90.50;;;;;;5018964;28;20029;-87
2021/04/10 02:13:29;;;;;;;6.65;1.60;;;10.20;90.70;;;;;;5036609;28;20496;-87
2021/04/10 02:15:55;;;;;;;3.17;1.38;;;10.30;90.70;;;;;;5018726;28;20124;-86
2021/04/10 02:18:21;;;;;;;6.72;1.60;;;10.20;90.80;;;;;;5018795;28;20164;-85
2021/04/10 02:20:47;;;;;;;4.05;1.48;;;10.20;90.70;;;;;;5036670;28;20033;-86
2021/04/10 02:23:15;;;;;;;6.53;1.88;;;10.20;90.90;;;;;;5018809;28;20030;-86
2021/04/10 02:25:41;;;;;;;3.95;1.30;;;10.20;91.10;;;;;;5018581;28;20037;-87
2021/04/10 02:28:07;;;;;;;8.05;1.77;;;10.20;91.20;;;;;;5036195;28;20025;-86
2021/04/10 02:30:33;;;;;;;7.80;1.50;;;10.20;90.90;;;;;;5018437;28;20081;-86
2021/04/10 02:33:06;;;;;;;4.63;1.35;;;10.20;90.90;;;;;;5018477;28;20025;-86
2021/04/10 02:35:40;;;;;;;4.10;1.40;;;10.20;91.00;;;;;;5018385;28;20024;-86
2021/04/10 02:38:07;;;;;;;4.93;1.48;;;10.20;90.90;;;;;;5036056;28;20124;-86
2021/04/10 02:40:39;;;;;;;4.18;1.40;;;10.20;91.20;;;;;;5018454;28;20029;-86
2021/04/10 02:43:08;;;;;;;8.18;1.70;;;10.20;91.30;;;;;;5019190;28;20087;-86
2021/04/10 02:45:34;;;;;;;5.70;1.50;;;10.10;91.40;;;;;;5018177;28;20017;-86
2021/04/10 02:48:04;;;;;;;8.07;1.77;;;10.10;91.40;;;;;;5018121;28;20456;-85
2021/04/10 02:50:30;;;;;;;3.70;1.33;;;10.10;91.50;;;;;;5035861;28;20022;-85
2021/04/10 02:53:01;;;;;;;7.55;1.60;;;10.20;91.50;;;;;;5018385;28;20021;-88
2021/04/10 02:55:32;;;;;;;3.65;1.27;;;10.20;91.50;;;;;;5016905;28;20487;-87
2021/04/10 02:58:07;;;;;;;6.50;1.55;;;10.20;91.60;;;;;;5018324;28;20053;-88
2021/04/10 03:00:33;;;;;;;2.38;1.27;;;10.20;91.40;;;;;;5036122;28;20032;-89
2021/04/10 03:03:03;;;;;;;5.07;1.50;;;10.10;92.00;;;;;;5018342;28;20034;-87
2021/04/10 03:05:29;;;;;;;7.55;1.55;;;10.10;92.20;;;;;;5017978;28;20033;-87
2021/04/10 03:07:56;;;;;;;7.13;1.52;;;10.10;92.70;;;;;;5017935;28;20030;-87
2021/04/10 03:10:22;;;;;;;6.25;1.63;;;10.00;92.80;;;;;;5017995;28;20025;-86
2021/04/10 03:12:52;;;;;;;2.75;1.40;;;10.00;93.00;;;;;;5017921;28;20500;-88
2021/04/10 03:15:19;;;;;;;7.43;2.15;;;10.00;93.40;;;;;;5035778;28;20495;-87
2021/04/10 03:17:45;;;;;;;5.88;1.58;;;10.00;93.70;;;;;;5035690;28;20025;-88
2021/04/10 03:20:16;;;;;;;6.18;1.50;;;9.90;94.40;;;;;;5017869;28;20021;-87
2021/04/10 03:22:46;;;;;;;6.88;1.70;;;9.90;95.00;;;;;;5017875;28;20071;-86
2021/04/10 03:25:15;;;;;;;3.20;1.40;;;9.80;95.70;;;;;;5034361;28;20022;-86
2021/04/10 03:27:41;;;;;;;5.68;1.45;;;9.80;95.90;;;;;;5035276;28;20440;-88
2021/04/10 03:30:09;;;;;;;6.78;1.40;;;9.80;96.50;;;;;;5035451;28;20022;-87
2021/04/10 03:32:35;;;;;;;7.00;1.58;;;9.80;96.60;;;;;;5017513;28;20025;-86
2021/04/10 03:35:02;;;;;;;6.00;1.80;;;9.70;96.20;;;;;;5035192;28;20021;-87
2021/04/10 03:37:29;;;;;;;3.25;1.40;;;9.80;96.50;;;;;;5034957;28;20049;-88
2021/04/10 03:39:56;;;;;;;5.68;1.48;;;9.70;96.10;;;;;;5035013;28;20492;-87
2021/04/10 03:42:34;;;;;;;3.22;1.10;;;9.70;96.40;;;;;;5034984;28;20021;-86
2021/04/10 03:45:00;;;;;;;4.75;1.40;;;9.70;96.20;;;;;;5017561;28;20036;-87
2021/04/10 03:47:26;;;;;;;7.07;2.45;;;9.70;97.30;;;;;;5034987;28;20022;-87
2021/04/10 03:49:51;;;;;;;5.03;1.50;;;9.70;98.00;;;;;;5034803;28;20022;-87
2021/04/10 03:52:17;;;;;;;4.50;1.58;;;9.60;98.60;;;;;;5017078;28;20032;-88
2021/04/10 03:54:43;;;;;;;4.93;1.48;;;9.60;98.20;;;;;;5017127;28;20064;-87
2021/04/10 03:57:08;;;;;;;8.25;1.77;;;9.50;98.50;;;;;;5034669;28;20029;-87
2021/04/10 03:59:34;;;;;;;5.38;1.48;;;9.50;98.80;;;;;;5034729;28;20026;-86
2021/04/10 04:02:00;;;;;;;4.35;1.60;;;9.50;98.70;;;;;;5016883;28;20151;-88
2021/04/10 04:04:26;;;;;;;4.13;1.48;;;9.40;98.20;;;;;;5034506;28;20052;-87
2021/04/10 04:06:51;;;;;;;8.63;1.58;;;9.40;98.30;;;;;;5016257;28;20026;-86
2021/04/10 04:09:17;;;;;;;3.90;1.38;;;9.40;99.50;;;;;;5034495;28;20025;-87
2021/04/10 04:11:43;;;;;;;10.90;1.40;;;9.30;99.90;;;;;;5016759;28;20033;-86
2021/04/10 04:14:08;;;;;;;4.95;1.40;;;9.30;99.90;;;;;;5016754;28;20100;-87
2021/04/10 04:16:34;;;;;;;4.30;1.50;;;9.30;99.90;;;;;;5016570;28;20026;-88
2021/04/10 04:19:00;;;;;;;5.47;1.08;;;9.30;99.90;;;;;;5016902;28;20033;-86
2021/04/10 04:21:25;;;;;;;5.13;1.50;;;9.30;99.90;;;;;;5016541;28;20021;-86
2021/04/10 04:23:51;;;;;;;6.72;1.40;;;9.30;99.90;;;;;;5017364;28;20361;-86
2021/04/10 04:26:17;;;;;;;2.65;1.25;;;9.20;99.90;;;;;;5034216;28;20022;-86
2021/04/10 04:28:42;;;;;;;5.50;1.58;;;9.20;99.90;;;;;;5034033;28;20091;-87
2021/04/10 04:31:08;;;;;;;5.00;1.13;;;9.20;99.90;;;;;;5016272;28;20025;-87
2021/04/10 04:33:34;;;;;;;6.30;1.48;;;9.20;99.90;;;;;;5016327;28;20075;-86
2021/04/10 04:36:00;;;;;;;6.63;1.40;;;9.20;99.90;;;;;;5034243;28;20076;-86
2021/04/10 04:38:26;;;;;;;3.50;1.38;;;9.10;99.90;;;;;;5049798;28;20040;-86
2021/04/10 04:40:51;;;;;;;6.93;1.70;;;9.10;99.90;;;;;;5052596;28;20021;-87
2021/04/10 04:43:17;;;;;;;3.28;1.30;;;9.00;99.90;;;;;;5052688;28;20021;-87
2021/04/10 04:45:43;;;;;;;5.18;1.70;;;8.90;99.90;;;;;;5053414;28;20149;-88
2021/04/10 04:48:09;;;;;;;9.38;1.88;;;8.90;99.90;;;;;;5052528;28;20119;-86
2021/04/10 04:50:34;;;;;;;2.65;1.58;;;8.80;99.90;;;;;;5052456;28;20052;-87
2021/04/10 04:53:00;;;;;;;7.60;1.70;;;8.70;99.90;;;;;;5052599;28;20025;-87
2021/04/10 04:55:26;;;;;;;3.97;1.40;;;8.70;99.90;;;;;;5052408;28;20021;-85
2021/04/10 04:57:51;;;;;;;7.43;1.85;;;8.60;99.90;;;;;;5052353;28;20472;-86
2021/04/10 05:00:17;;;;;;;5.05;1.67;;;8.70;99.90;;;;;;5052336;28;20079;-86
2021/04/10 05:02:44;;;;;;;3.45;1.50;;;8.60;99.90;;;;;;5053109;28;20039;-87
2021/04/10 05:05:10;;;;;;;6.90;1.33;;;8.60;99.90;;;;;;5054146;28;20044;-88
2021/04/10 05:07:36;;;;;;;3.50;1.63;;;8.60;99.90;;;;;;5052321;28;20029;-86
2021/04/10 05:10:02;;;;;;;2.67;1.40;;;8.60;99.90;;;;;;5052140;28;20027;-87
2021/04/10 05:12:27;;;;;;;7.60;1.65;;;8.70;99.90;;;;;;5053540;28;20025;-85
2021/04/10 05:14:54;;;;;;;4.70;1.30;;;8.60;99.90;;;;;;5052143;28;20067;-86
2021/04/10 05:17:19;;;;;;;7.78;1.90;;;8.70;99.90;;;;;;5052112;28;20033;-87
2021/04/10 05:19:45;;;;;;;3.70;1.50;;;8.70;99.90;;;;;;5056009;28;20465;-87
2021/04/10 05:22:11;;;;;;;4.75;1.30;;;8.70;99.90;;;;;;5056523;28;20056;-87
2021/04/10 05:24:36;;;;;;;3.65;1.48;;;8.70;99.90;;;;;;5057656;28;20025;-88
2021/04/10 05:27:02;;;;;;;6.57;1.80;;;8.80;99.90;;;;;;5056168;28;20029;-87
2021/04/10 05:29:28;;;;;;;5.25;1.55;;;8.80;99.90;;;;;;5056181;28;20032;-88
2021/04/10 05:31:54;;;;;;;2.83;1.40;;;8.80;99.90;;;;;;5056095;28;20021;-86
2021/04/10 05:34:20;;;;;;;5.80;1.40;;;8.80;99.90;;;;;;5057526;28;20100;-85
2021/04/10 05:36:46;;;;;;;4.97;1.30;;;8.90;99.90;;;;;;5054425;28;20543;-87
2021/04/10 05:39:11;;;;;;;4.43;1.48;;;8.90;99.90;;;;;;5019601;28;20477;-87
2021/04/10 05:41:37;;;;;;;5.88;1.30;;;9.00;99.90;;;;;;5020505;28;20030;-87
2021/04/10 05:44:03;;;;;;;5.28;1.60;;;8.90;99.90;;;;;;5037258;28;20048;-87
2021/04/10 05:46:29;;;;;;;4.95;1.42;;;9.00;99.90;;;;;;5019296;28;20033;-88
2021/04/10 05:48:54;;;;;;;6.30;1.42;;;9.00;99.90;;;;;;5019421;28;20025;-88
2021/04/10 05:51:20;;;;;;;4.20;1.38;;;9.00;99.90;;;;;;5019364;28;20024;-85
2021/04/10 05:53:46;;;;;;;6.07;1.23;;;9.00;99.90;;;;;;5019458;28;20607;-87
2021/04/10 05:56:12;;;;;;;5.78;1.50;;;9.10;99.90;;;;;;5037098;28;20029;-86
2021/04/10 05:58:38;;;;;;;7.28;1.95;;;9.10;99.90;;;;;;5037120;28;20495;-87
2021/04/10 06:01:04;;;;;;;5.13;1.88;;;9.10;99.90;;;;;;5019556;28;20029;-87
2021/04/10 06:03:30;;;;;;;5.78;1.40;;;9.20;99.90;;;;;;5020132;28;20117;-88
2021/04/10 06:05:56;;;;;;;5.50;1.33;;;9.10;99.90;;;;;;5019126;28;20469;-86
2021/04/10 06:08:22;;;;;;;5.15;1.85;;;9.20;99.90;;;;;;5037147;28;20025;-88
2021/04/10 06:10:47;;;;;;;4.43;1.65;;;9.10;99.90;;;;;;5019208;28;20532;-88
2021/04/10 06:13:14;;;;;;;3.92;1.50;;;9.10;99.90;;;;;;5036824;28;20362;-86
2021/04/10 06:15:40;;;;;;;6.57;2.00;;;9.20;99.90;;;;;;5019417;28;20385;-88
2021/04/10 06:18:06;;;;;;;3.75;1.60;;;9.20;99.90;;;;;;5018926;28;20025;-88
2021/04/10 06:20:32;;;;;;;6.45;1.70;;;9.20;99.90;;;;;;5019260;28;20037;-87
2021/04/10 06:22:58;;;;;;;4.53;1.50;;;9.20;99.90;;;;;;5036732;28;20076;-88
2021/04/10 06:25:23;;;;;;;4.93;1.70;;;9.20;99.90;;;;;;5018704;28;20384;-86
2021/04/10 06:27:49;;;;;;;3.25;1.50;;;9.20;99.90;;;;;;5018730;28;20029;-85
2021/04/10 06:30:15;;;;;;;3.30;1.70;;;9.20;99.90;;;;;;5018489;28;20032;-87
2021/04/10 06:32:41;;;;;;;3.88;1.45;;;9.20;99.90;;;;;;5018584;28;20022;-88
2021/04/10 06:35:07;;;;;;;4.22;1.63;;;9.10;99.90;;;;;;5018448;28;20044;-87
2021/04/10 06:37:34;;;;;;;8.60;1.90;;;9.20;99.90;;;;;;5036325;28;20041;-85
2021/04/10 06:40:00;;;;;;;3.15;1.70;;;9.20;99.90;;;;;;5018673;28;20021;-88
2021/04/10 06:42:26;;;;;;;5.18;1.73;;;9.20;99.90;;;;;;5018559;28;20036;-88
2021/04/10 06:44:54;;;;;;;4.07;1.70;;;9.20;99.90;;;;;;5018504;28;20124;-86
2021/04/10 06:47:22;;;;;;;3.92;1.40;;;9.20;99.90;;;;;;5036079;28;20036;-87
2021/04/10 06:49:51;;;;;;;4.93;1.48;;;9.20;99.90;;;;;;5018617;28;20018;-86
2021/04/10 06:52:18;;;;;;;6.50;1.58;;;9.20;99.90;;;;;;5036465;28;20025;-87
2021/04/10 06:54:49;;;;;;;9.05;1.95;;;9.30;99.90;;;;;;5036130;28;20100;-86
2021/04/10 06:57:21;;;;;;;5.45;1.38;;;9.30;99.90;;;;;;5018340;28;20055;-86
2021/04/10 06:59:55;;;;;;;6.45;1.52;;;9.30;99.90;;;;;;5036113;28;20025;-85
2021/04/10 07:02:22;;;;;;;1.70;1.17;;;9.30;99.90;;;;;;5036109;28;20096;-88
2021/04/10 07:04:48;;;;;;;6.40;1.60;;;9.30;99.90;;;;;;5036171;28;20057;-88
2021/04/10 07:07:14;;;;;;;3.28;1.23;;;9.30;99.90;;;;;;5018034;28;20052;-88
2021/04/10 07:09:40;;;;;;;3.42;1.70;;;9.30;99.90;;;;;;5018436;28;20030;-89
2021/04/10 07:12:08;;;;;;;3.30;1.40;;;9.30;99.90;;;;;;5018054;28;20465;-86
2021/04/10 07:14:34;;;;;;;5.72;1.50;;;9.30;99.90;;;;;;5017920;28;20116;-88
2021/04/10 07:17:00;;;;;;;3.00;1.23;;;9.30;99.90;;;;;;5017779;28;20032;-87
2021/04/10 07:19:27;;;;;;;5.25;1.48;;;9.30;99.90;;;;;;5017947;28;20029;-88
2021/04/10 07:22:11;;;;;;;3.95;1.42;;;9.30;99.90;;;;;;5034239;28;20145;-87
2021/04/10 07:24:52;;;;;;;6.60;1.60;;;9.30;99.90;;;;;;5017506;28;20037;-88
2021/04/10 07:27:20;;;;;;;3.13;1.40;;;9.30;99.90;;;;;;5017553;28;20295;-87
2021/04/10 07:29:58;;;;;;;2.45;1.50;;;9.30;99.90;;;;;;5035522;28;20040;-89
2021/04/10 07:32:37;;;;;;;3.40;1.70;;;9.20;99.90;;;;;;5017786;28;20032;-86
2021/04/10 07:35:07;;;;;;;6.50;1.40;;;9.30;99.90;;;;;;5018252;28;20462;-86
2021/04/10 07:37:51;;;;;;;5.47;2.03;;;9.30;99.90;;;;;;5035319;28;20037;-88
2021/04/10 07:40:23;;;;;;;5.05;1.48;;;9.30;99.90;;;;;;5017176;28;20029;-86
2021/04/10 07:42:49;;;;;;;2.85;1.40;;;9.20;99.90;;;;;;5017158;28;20489;-86
2021/04/10 07:45:34;;;;;;;6.82;1.45;;;9.20;99.90;;;;;;5017138;28;20183;-86
2021/04/10 07:48:13;;;;;;;4.32;1.30;;;9.20;99.90;;;;;;5016928;28;20079;-88
2021/04/10 07:50:41;;;;;;;6.43;1.25;;;9.20;99.90;;;;;;5017212;28;20063;-86
2021/04/10 07:53:28;;;;;;;4.13;1.20;;;9.20;99.90;;;;;;5017144;28;20071;-86
2021/04/10 07:55:56;;;;;;;4.85;1.80;;;9.30;99.90;;;;;;5017127;28;20021;-87
2021/04/10 07:58:27;;;;;;;3.08;1.25;;;9.20;99.90;;;;;;5017009;28;20113;-85
2021/04/10 08:01:05;;;;;;;1.90;1.00;;;9.20;99.90;;;;;;5017014;28;20432;-87
2021/04/10 08:03:36;;;;;;;3.95;1.40;;;9.20;99.90;;;;;;5016872;28;20028;-88
2021/04/10 08:06:05;;;;;;;2.65;1.48;;;9.20;99.90;;;;;;5034286;28;20026;-86
2021/04/10 08:08:32;;;;;;;3.30;1.20;;;9.30;99.90;;;;;;5035069;28;20363;-86
2021/04/10 08:11:00;;;;;;;3.28;1.10;;;9.30;99.90;;;;;;5017247;28;20018;-88
2021/04/10 08:13:26;;;;;;;6.03;1.58;;;9.20;99.90;;;;;;5033607;28;20053;-87
2021/04/10 08:16:11;;;;;;;4.22;1.30;;;9.20;99.90;;;;;;5017129;28;20026;-84
2021/04/10 08:18:52;;;;;;;3.42;1.27;;;9.20;99.90;;;;;;5017171;28;20025;-85
2021/04/10 08:21:20;;;;;;;3.00;1.33;;;9.20;99.90;;;;;;5018602;28;20025;-85
2021/04/10 08:23:48;;;;;;;2.10;1.20;;;9.20;99.90;;;;;;5018691;28;20028;-86
2021/04/10 08:26:15;;;;;;;3.05;1.20;;;9.30;99.90;;;;;;5018866;28;20171;-88
2021/04/10 08:28:41;;;;;;;2.25;1.20;;;9.30;99.90;;;;;;5019966;28;20018;-88
2021/04/10 08:31:07;;;;;;;2.70;1.48;;;9.40;99.90;;;;;;5018682;28;20079;-86
2021/04/10 08:33:34;;;;;;;3.72;1.30;;;9.40;99.90;;;;;;5035611;28;20025;-87
2021/04/10 08:36:04;;;;;;;1.65;1.00;;;9.40;99.90;;;;;;5019010;28;20033;-86
2021/04/10 08:38:31;;;;;;;8.98;3.53;;;9.40;99.90;;;;;;5048425;28;20048;-85
2021/04/10 08:41:02;;;;;;;4.63;1.40;;;9.50;99.90;;;;;;5057270;28;20025;-86
2021/04/10 08:43:30;;;;;;;1.70;1.30;;;9.50;99.90;;;;;;5055604;28;20020;-86
2021/04/10 08:45:58;;;;;;;3.33;1.15;;;9.60;99.90;;;;;;5055487;28;20537;-87
2021/04/10 08:48:23;;;;;;;3.05;1.40;;;9.60;99.90;;;;;;5054682;28;20021;-86
2021/04/10 08:50:52;;;;;;;4.00;1.17;;;9.60;99.90;;;;;;5054138;28;20029;-87
2021/04/10 08:53:23;;;;;;;3.88;1.38;;;9.70;99.90;;;;;;5053990;28;20017;-85
2021/04/10 08:55:50;;;;;;;7.15;1.63;;;9.90;99.90;;;;;;5054022;28;20021;-88
2021/04/10 08:58:20;;;;;;;3.60;1.00;;;10.00;99.90;;;;;;5053881;28;20032;-85
2021/04/10 09:00:52;;;;;;;7.47;2.45;;;10.10;99.90;;;;;;5054308;28;20032;-88
2021/04/10 09:03:17;;;;;;;4.25;1.40;;;10.20;99.90;;;;;;5054336;28;20468;-86
2021/04/10 09:05:49;;;;;;;6.60;1.90;;;10.30;99.90;;;;;;5054709;28;20033;-88
2021/04/10 09:08:28;;;;;;;3.95;0.82;;;10.40;99.90;;;;;;5054061;28;20365;-86
2021/04/10 09:10:58;;;;;;;2.88;1.10;;;10.40;99.90;;;;;;5054695;28;20548;-88
2021/04/10 09:13:26;;;;;;;3.75;1.13;;;10.60;99.90;;;;;;5053808;28;20491;-85
2021/04/10 09:16:22;;;;;;;4.32;2.13;;;10.70;99.90;;;;;;5055531;28;20021;-88
2021/04/10 09:18:52;;;;;;;2.63;0.93;;;11.00;99.90;;;;;;5037902;28;20104;-85
2021/04/10 09:21:33;;;;;;;2.40;1.00;;;11.20;99.90;;;;;;5053487;28;20050;-86
2021/04/10 09:23:59;;;;;;;1.85;0.90;;;11.10;99.90;;;;;;5053712;28;20029;-88
2021/04/10 09:26:24;;;;;;;2.17;1.00;;;11.10;99.90;;;;;;5054389;28;20495;-87
2021/04/10 09:29:05;;;;;;;4.93;0.98;;;11.10;99.90;;;;;;5053357;28;20028;-86
2021/04/10 09:31:49;;;;;;;3.08;1.27;;;11.00;99.90;;;;;;5056502;28;20029;-86
2021/04/10 09:34:42;;;;;;;4.68;0.88;;;11.10;99.90;;;;;;5055341;28;20021;-86
2021/04/10 09:37:10;;;;;;;3.03;0.90;;;11.10;99.90;;;;;;5053413;28;20049;-88
2021/04/10 09:39:57;;;;;;;3.85;1.20;;;11.30;99.90;;;;;;5055513;28;20025;-88
2021/04/10 09:42:38;;;;;;;1.42;0.98;;;11.40;99.90;;;;;;5054192;28;20108;-86
2021/04/10 09:45:23;;;;;;;6.05;1.65;;;11.50;99.90;;;;;;5054084;28;20381;-86
2021/04/10 09:47:54;;;;;;;1.70;0.80;;;11.50;99.90;;;;;;5055567;28;20083;-85
2021/04/10 09:50:32;;;;;;;1.95;0.90;;;11.60;99.90;;;;;;5053468;28;20503;-87
2021/04/10 09:53:04;;;;;;;20.27;7.00;;;11.40;99.90;;;;;;5053335;28;20025;-88
2021/04/10 09:55:41;;;;;;;2.42;1.10;;;11.50;99.90;;;;;;5053342;28;20199;-85
2021/04/10 09:58:09;;;;;;;1.90;0.70;;;11.60;99.90;;;;;;5053067;28;20025;-85
2021/04/10 10:00:39;;;;;;;1.60;0.73;;;11.40;99.90;;;;;;5053685;28;20021;-85
2021/04/10 10:03:07;;;;;;;1.40;0.77;;;11.50;99.90;;;;;;5053761;28;20029;-84
2021/04/10 10:05:44;;;;;;;4.53;0.70;;;11.50;99.90;;;;;;5055735;28;20033;-85
2021/04/10 10:08:14;;;;;;;1.55;0.80;;;11.50;99.90;;;;;;5056703;28;20053;-88
2021/04/10 10:10:55;;;;;;;2.70;0.80;;;11.50;99.90;;;;;;5056748;28;20427;-85
2021/04/10 10:13:25;;;;;;;2.88;0.88;;;11.50;99.90;;;;;;5056705;28;20021;-86
2021/04/10 10:15:52;;;;;;;1.15;0.68;;;11.40;99.90;;;;;;5056842;28;20108;-89
2021/04/10 10:18:24;;;;;;;1.40;0.80;;;11.30;99.90;;;;;;5056943;28;20029;-90
2021/04/10 10:21:11;;;;;;;2.55;0.93;;;11.40;99.90;;;;;;5056235;28;20025;-89
2021/04/10 10:23:41;;;;;;;1.95;0.70;;;11.50;99.90;;;;;;5056568;28;20433;-89
2021/04/10 10:26:12;;;;;;;6.28;1.20;;;11.60;99.90;;;;;;5056899;28;20488;-86
2021/04/10 10:28:43;;;;;;;3.13;1.00;;;11.60;99.90;;;;;;5056531;28;20159;-87
2021/04/10 10:31:16;;;;;;;1.27;0.70;;;11.70;99.90;;;;;;5056376;28;20021;-90
2021/04/10 10:33:42;;;;;;;2.42;0.60;;;11.80;99.90;;;;;;5056182;28;20446;-89
2021/04/10 10:36:10;;;;;;;1.00;0.75;;;11.90;99.90;;;;;;5056750;28;20111;-88
2021/04/10 10:38:38;;;;;;;3.45;0.88;;;12.10;99.90;;;;;;5056108;28;20045;-89
2021/04/10 10:41:06;;;;;;;3.78;0.70;;;12.40;99.90;;;;;;5056093;28;20024;-82
2021/04/10 10:43:33;;;;;;;1.17;0.50;;;12.70;99.90;;;;;;5059637;28;20108;-87
2021/04/10 10:46:01;;;;;;;1.15;0.47;;;13.00;99.90;;;;;;5059891;28;20123;-87
2021/04/10 10:48:29;;;;;;;2.33;0.75;;;13.00;99.90;;;;;;5056509;28;20112;-87
2021/04/10 10:50:59;;;;;;;1.73;0.80;;;13.00;99.90;;;;;;5056726;28;20079;-85
2021/04/10 10:53:36;;;;;;;1.00;0.60;;;13.10;99.90;;;;;;5055719;28;20032;-88
2021/04/10 10:56:22;;;;;;;1.48;0.45;;;13.50;99.60;;;;;;5057224;28;20027;-90
2021/04/10 10:58:50;;;;;;;2.47;0.80;;;13.60;98.80;;;;;;5056873;28;20021;-88
2021/04/10 11:01:20;;;;;;;1.55;0.60;;;13.60;98.90;;;;;;5056836;28;20021;-89
2021/04/10 11:03:51;;;;;;;2.25;0.90;;;13.80;98.30;;;;;;5055463;28;20028;-88
2021/04/10 11:06:22;;;;;;;1.05;0.52;;;14.20;97.60;;;;;;5055994;28;20033;-89
2021/04/10 11:08:49;;;;;;;2.42;0.65;;;13.60;97.70;;;;;;5056213;28;20021;-88
2021/04/10 11:11:16;;;;;;;3.20;0.90;;;13.50;98.10;;;;;;5057174;28;20388;-88
2021/04/10 11:13:46;;;;;;;2.15;1.00;;;13.30;98.60;;;;;;5055992;28;20045;-89
2021/04/10 11:16:13;;;;;;;2.40;0.73;;;13.50;98.70;;;;;;5056426;28;20074;-89
2021/04/10 11:18:39;;;;;;;2.55;0.85;;;13.50;98.20;;;;;;5055604;28;20512;-88
2021/04/10 11:21:17;;;;;;;2.13;0.70;;;13.60;97.20;;;;;;5057065;28;20102;-89
2021/04/10 11:24:00;;;;;;;3.85;1.05;;;13.70;97.80;;;;;;5056356;28;20021;-89
2021/04/10 11:26:44;;;;;;;2.33;0.60;;;13.70;97.40;;;;;;5056649;28;20066;-88
2021/04/10 11:29:23;;;;;;;3.22;0.50;;;13.70;97.70;;;;;;5057522;28;20029;-87
2021/04/10 11:32:16;;;;;;;11.20;1.17;;;13.70;97.50;;;;;;5057641;28;20028;-88
2021/04/10 11:34:54;;;;;;;4.03;0.88;;;13.70;97.30;;;;;;5058141;28;20021;-89
2021/04/10 11:37:28;;;;;;;1.92;0.70;;;13.80;98.00;;;;;;5052068;28;20108;-89
2021/04/10 11:39:59;;;;;;;1.60;0.60;;;13.70;97.60;;;;;;5019404;28;20124;-89
2021/04/10 11:42:30;;;;;;;2.63;0.80;;;13.90;97.30;;;;;;5019262;28;20033;-90
2021/04/10 11:44:58;;;;;;;2.10;0.55;;;14.00;97.30;;;;;;5019261;28;20030;-89
2021/04/10 11:47:29;;;;;;;4.07;0.70;;;14.30;96.40;;;;;;5018750;28;20032;-89
2021/04/10 11:50:17;;;;;;;7.32;0.85;;;14.50;95.90;;;;;;5019505;28;20389;-89
2021/04/10 11:52:45;;;;;;;9.18;1.60;;;14.60;95.40;;;;;;5019524;28;20053;-90
2021/04/10 11:55:17;;;;;;;1.63;0.88;;;14.70;95.00;;;;;;5019098;28;20116;-90
2021/04/10 11:57:45;;;;;;;8.43;1.15;;;15.20;93.90;;;;;;5036017;28;20025;-90
2021/04/10 12:00:15;;;;;;;2.83;0.65;;;15.20;93.30;;;;;;5018846;28;20116;-89
2021/04/10 12:02:51;;;;;;;2.00;1.02;;;15.40;93.30;;;;;;5019094;28;20021;-89
2021/04/10 12:05:30;;;;;;;20.85;1.60;;;16.30;92.00;;;;;;5019251;28;20104;-89
2021/04/10 12:08:13;;;;;;;1.55;0.70;;;16.50;90.90;;;;;;5019921;28;20029;-90
2021/04/10 12:10:51;;;;;;;1.65;0.50;;;16.50;89.80;;;;;;5020159;28;20099;-89
2021/04/10 12:13:18;;;;;;;3.38;0.65;;;17.10;88.60;;;;;;5022087;28;20026;-88
2021/04/10 12:15:55;;;;;;;1.67;0.50;;;18.50;99.90;;;;;;5021515;28;20104;-88
2021/04/10 12:18:23;;;;;;;5.38;0.70;;;18.30;83.30;;;;;;5021468;28;20087;-87
2021/04/10 12:20:53;;;;;;;2.90;0.52;;;19.30;77.90;;;;;;5020478;28;20052;-89
2021/04/10 12:23:22;;;;;;;1.75;0.40;;;19.40;77.80;;;;;;5020967;28;20026;-89
2021/04/10 12:25:58;;;;;;;0.85;0.40;;;19.40;74.80;;;;;;5020743;28;20022;-89
2021/04/10 12:28:32;;;;;;;1.15;0.50;;;20.10;75.10;;;;;;5017307;28;20115;-89
2021/04/10 12:31:02;;;;;;;;;;;20.30;72.50;;;;;;5018623;28;20025;-89
2021/04/10 12:33:28;;;;;;;2.10;0.52;;;19.60;72.50;;;;;;5017567;28;20257;-88
2021/04/10 12:35:57;;;;;;;1.38;0.60;;;20.80;85.00;;;;;;5018443;28;20112;-88
2021/04/10 12:38:30;;;;;;;2.08;0.40;;;19.60;69.20;;;;;;5041788;28;20076;-87
2021/04/10 12:40:55;;;;;;;1.25;0.50;;;20.30;64.30;;;;;;5053780;28;20063;-87
2021/04/10 12:43:30;;;;;;;2.53;0.47;;;20.40;64.70;;;;;;5055641;28;20025;-88
2021/04/10 12:45:58;;;;;;;2.22;0.50;;;21.20;61.50;;;;;;5054674;28;20021;-87
2021/04/10 12:48:27;;;;;;;0.75;0.45;;;20.60;59.60;;;;;;5054425;28;20476;-88
2021/04/10 12:50:55;;;;;;;1.60;0.43;;;19.80;61.20;;;;;;5054366;28;20033;-89
2021/04/10 12:53:21;;;;;;;2.97;0.77;;;19.00;64.60;;;;;;5053890;28;20028;-88
2021/04/10 12:55:49;;;;;;;2.05;0.60;;;18.30;66.00;;;;;;5053703;28;20021;-88
2021/04/10 12:58:15;;;;;;;0.88;0.50;;;18.00;66.40;;;;;;5055074;28;20025;-88
2021/04/10 13:00:40;;;;;;;1.58;0.55;;;17.50;67.20;;;;;;5062404;28;20048;-87
2021/04/10 13:03:06;;;;;;;1.63;0.57;;;17.50;67.00;;;;;;5063926;28;20040;-88
2021/04/10 13:05:34;;;;;;;2.67;0.30;;;17.50;68.50;;;;;;5055947;28;20063;-86